sensor_id;sensor_type;location;lat;lon;timestamp;P1;durP1;ratioP1;P2;durP2;ratioP2
20995;SDS011;10656;52.200;21.052;2023-07-16T00:06:54;13.40;;;12.10;;
20995;SDS011;10656;52.200;21.052;2023-07-16T00:13:53;12.73;;;11.63;;
20995;SDS011;10656;52.200;21.052;2023-07-16T00:26:41;13.20;;;11.97;;
20995;SDS011;10656;52.200;21.052;2023-07-16T01:53:28;13.20;;;12.10;;
20995;SDS011;10656;52.200;21.052;2023-07-16T02:18:37;14.30;;;13.00;;
20995;SDS011;10656;52.200;21.052;2023-07-16T02:54:14;13.53;;;12.43;;
20995;SDS011;10656;52.200;21.052;2023-07-16T03:24:38;13.90;;;12.70;;
20995;SDS011;10656;52.200;21.052;2023-07-16T03:50:05;13.73;;;12.43;;
20995;SDS011;10656;52.200;21.052;2023-07-16T05:06:04;13.80;;;12.52;;
20995;SDS011;10656;52.200;21.052;2023-07-16T05:31:13;13.55;;;12.23;;
20995;SDS011;10656;52.200;21.052;2023-07-16T05:38:30;12.73;;;11.60;;
20995;SDS011;10656;52.200;21.052;2023-07-16T06:21:58;10.60;;;9.65;;
20995;SDS011;10656;52.200;21.052;2023-07-16T06:52:24;9.73;;;8.73;;
20995;SDS011;10656;52.200;21.052;2023-07-16T07:07:43;9.02;;;8.23;;
20995;SDS011;10656;52.200;21.052;2023-07-16T07:33:11;8.35;;;7.65;;
20995;SDS011;10656;52.200;21.052;2023-07-16T08:08:41;7.68;;;6.97;;
20995;SDS011;10656;52.200;21.052;2023-07-16T08:18:05;7.47;;;6.80;;
20995;SDS011;10656;52.200;21.052;2023-07-16T08:48:21;6.75;;;6.10;;
20995;SDS011;10656;52.200;21.052;2023-07-16T09:13:48;5.75;;;5.25;;
20995;SDS011;10656;52.200;21.052;2023-07-16T09:38:59;5.70;;;5.30;;
20995;SDS011;10656;52.200;21.052;2023-07-16T10:05:47;6.20;;;5.78;;
20995;SDS011;10656;52.200;21.052;2023-07-16T10:59:58;8.38;;;7.50;;
20995;SDS011;10656;52.200;21.052;2023-07-16T11:30:13;7.70;;;7.13;;
20995;SDS011;10656;52.200;21.052;2023-07-16T12:31:09;9.73;;;6.95;;
20995;SDS011;10656;52.200;21.052;2023-07-16T13:02:00;6.22;;;5.63;;
20995;SDS011;10656;52.200;21.052;2023-07-16T13:27:30;5.35;;;4.95;;
20995;SDS011;10656;52.200;21.052;2023-07-16T13:31:48;4.90;;;4.50;;
20995;SDS011;10656;52.200;21.052;2023-07-16T13:57:35;4.90;;;4.50;;
20995;SDS011;10656;52.200;21.052;2023-07-16T14:28:21;3.70;;;3.50;;
20995;SDS011;10656;52.200;21.052;2023-07-16T15:03:49;3.72;;;3.42;;
20995;SDS011;10656;52.200;21.052;2023-07-16T15:33:55;4.97;;;3.28;;
20995;SDS011;10656;52.200;21.052;2023-07-16T16:04:22;5.00;;;3.00;;
20995;SDS011;10656;52.200;21.052;2023-07-16T16:29:48;3.00;;;2.70;;
20995;SDS011;10656;52.200;21.052;2023-07-16T17:00:26;3.83;;;2.97;;
20995;SDS011;10656;52.200;21.052;2023-07-16T17:20:45;4.47;;;2.88;;
20995;SDS011;10656;52.200;21.052;2023-07-16T17:32:28;3.10;;;2.90;;
20995;SDS011;10656;52.200;21.052;2023-07-16T19:37:19;4.25;;;3.30;;
20995;SDS011;10656;52.200;21.052;2023-07-16T20:07:57;3.90;;;3.47;;
20995;SDS011;10656;52.200;21.052;2023-07-16T20:28:24;3.70;;;3.33;;
20995;SDS011;10656;52.200;21.052;2023-07-16T20:48:40;3.72;;;3.33;;
20995;SDS011;10656;52.200;21.052;2023-07-16T20:55:42;3.38;;;2.92;;
20995;SDS011;10656;52.200;21.052;2023-07-16T21:13:29;4.15;;;2.80;;
20995;SDS011;10656;52.200;21.052;2023-07-16T21:39:22;3.40;;;3.10;;
20995;SDS011;10656;52.200;21.052;2023-07-16T21:59:53;2.78;;;2.58;;
20995;SDS011;10656;52.200;21.052;2023-07-16T22:39:43;3.00;;;2.75;;
20995;SDS011;10656;52.200;21.052;2023-07-16T23:00:03;3.00;;;2.70;;
20995;SDS011;10656;52.200;21.052;2023-07-16T23:20:33;4.35;;;2.97;;
